sensor_id;sensor_type;location;lat;lon;timestamp;pressure;altitude;pressure_sealevel;temperature;humidity
23118;BME280;11728;50.624;6.014;2023-05-29T00:03:55;98706.38;;;16.68;61.39
23118;BME280;11728;50.624;6.014;2023-05-29T00:09:16;98704.91;;;16.61;61.94
23118;BME280;11728;50.624;6.014;2023-05-29T00:14:37;98702.59;;;16.52;62.29
23118;BME280;11728;50.624;6.014;2023-05-29T00:20:04;98706.44;;;16.45;62.77
23118;BME280;11728;50.624;6.014;2023-05-29T00:25:29;98710.38;;;16.35;62.72
23118;BME280;11728;50.624;6.014;2023-05-29T00:30:50;98712.56;;;16.24;62.87
23118;BME280;11728;50.624;6.014;2023-05-29T00:36:10;98716.41;;;16.17;63.05
23118;BME280;11728;50.624;6.014;2023-05-29T00:41:31;98711.41;;;16.08;63.33
23118;BME280;11728;50.624;6.014;2023-05-29T00:46:52;98711.66;;;16.02;63.70
23118;BME280;11728;50.624;6.014;2023-05-29T00:52:13;98708.25;;;15.97;63.95
23118;BME280;11728;50.624;6.014;2023-05-29T00:57:35;98705.91;;;15.90;63.80
23118;BME280;11728;50.624;6.014;2023-05-29T01:02:56;98702.56;;;15.83;64.29
23118;BME280;11728;50.624;6.014;2023-05-29T01:08:19;98697.59;;;15.74;64.49
23118;BME280;11728;50.624;6.014;2023-05-29T01:13:41;98703.28;;;15.65;64.83
23118;BME280;11728;50.624;6.014;2023-05-29T01:19:30;98709.50;;;15.64;65.30
23118;BME280;11728;50.624;6.014;2023-05-29T01:25:01;98711.66;;;15.55;64.96
23118;BME280;11728;50.624;6.014;2023-05-29T01:30:25;98704.06;;;15.43;65.18
23118;BME280;11728;50.624;6.014;2023-05-29T01:35:47;98707.13;;;15.33;65.53
23118;BME280;11728;50.624;6.014;2023-05-29T01:41:08;98727.78;;;15.25;65.72
23118;BME280;11728;50.624;6.014;2023-05-29T01:46:29;98728.91;;;15.18;66.15
23118;BME280;11728;50.624;6.014;2023-05-29T01:51:50;98741.59;;;15.10;66.31
23118;BME280;11728;50.624;6.014;2023-05-29T01:57:11;98737.31;;;15.04;66.14
23118;BME280;11728;50.624;6.014;2023-05-29T02:02:37;98724.50;;;14.91;66.82
23118;BME280;11728;50.624;6.014;2023-05-29T02:07:57;98738.81;;;14.87;67.01
23118;BME280;11728;50.624;6.014;2023-05-29T02:13:18;98739.13;;;14.78;67.59
23118;BME280;11728;50.624;6.014;2023-05-29T02:18:39;98742.06;;;14.69;67.53
23118;BME280;11728;50.624;6.014;2023-05-29T02:24:01;98746.75;;;14.61;67.62
23118;BME280;11728;50.624;6.014;2023-05-29T02:29:22;98742.56;;;14.53;67.72
23118;BME280;11728;50.624;6.014;2023-05-29T02:34:43;98755.25;;;14.45;67.40
23118;BME280;11728;50.624;6.014;2023-05-29T02:40:04;98758.97;;;14.39;67.05
23118;BME280;11728;50.624;6.014;2023-05-29T02:45:26;98758.31;;;14.31;66.90
23118;BME280;11728;50.624;6.014;2023-05-29T02:50:47;98769.16;;;14.24;66.75
23118;BME280;11728;50.624;6.014;2023-05-29T02:56:08;98769.41;;;14.16;66.54
23118;BME280;11728;50.624;6.014;2023-05-29T03:01:29;98766.03;;;14.11;66.44
23118;BME280;11728;50.624;6.014;2023-05-29T03:06:50;98768.00;;;14.03;66.45
23118;BME280;11728;50.624;6.014;2023-05-29T03:12:13;98781.47;;;13.96;66.56
23118;BME280;11728;50.624;6.014;2023-05-29T03:17:33;98766.69;;;13.87;66.55
23118;BME280;11728;50.624;6.014;2023-05-29T03:22:54;98766.81;;;13.83;66.88
23118;BME280;11728;50.624;6.014;2023-05-29T03:28:15;98768.75;;;13.77;67.06
23118;BME280;11728;50.624;6.014;2023-05-29T03:33:36;98768.09;;;13.69;67.58
23118;BME280;11728;50.624;6.014;2023-05-29T03:38:57;98768.31;;;13.61;67.93
23118;BME280;11728;50.624;6.014;2023-05-29T03:44:17;98771.94;;;13.57;68.14
23118;BME280;11728;50.624;6.014;2023-05-29T03:49:38;98783.50;;;13.55;68.11
23118;BME280;11728;50.624;6.014;2023-05-29T03:54:59;98784.53;;;13.49;68.44
23118;BME280;11728;50.624;6.014;2023-05-29T04:00:19;98793.50;;;13.45;68.85
23118;BME280;11728;50.624;6.014;2023-05-29T04:05:40;98793.50;;;13.45;68.89
23118;BME280;11728;50.624;6.014;2023-05-29T04:11:01;98799.66;;;13.46;69.17
23118;BME280;11728;50.624;6.014;2023-05-29T04:16:24;98800.59;;;13.45;69.70
23118;BME280;11728;50.624;6.014;2023-05-29T04:21:44;98807.69;;;13.44;69.76
23118;BME280;11728;50.624;6.014;2023-05-29T04:27:05;98807.50;;;13.50;69.91
23118;BME280;11728;50.624;6.014;2023-05-29T04:32:26;98800.22;;;13.58;70.45
23118;BME280;11728;50.624;6.014;2023-05-29T04:37:47;98809.97;;;13.58;70.52
23118;BME280;11728;50.624;6.014;2023-05-29T04:43:08;98819.59;;;13.62;70.90
23118;BME280;11728;50.624;6.014;2023-05-29T04:48:28;98821.16;;;13.70;71.00
23118;BME280;11728;50.624;6.014;2023-05-29T04:53:50;98831.59;;;13.76;71.22
23118;BME280;11728;50.624;6.014;2023-05-29T04:59:12;98824.31;;;13.82;71.59
23118;BME280;11728;50.624;6.014;2023-05-29T05:04:33;98828.25;;;14.01;71.12
23118;BME280;11728;50.624;6.014;2023-05-29T05:09:54;98830.56;;;14.15;70.74
23118;BME280;11728;50.624;6.014;2023-05-29T05:15:15;98828.44;;;14.26;70.12
23118;BME280;11728;50.624;6.014;2023-05-29T05:20:35;98842.19;;;14.41;69.36
23118;BME280;11728;50.624;6.014;2023-05-29T05:25:56;98844.53;;;14.52;68.81
23118;BME280;11728;50.624;6.014;2023-05-29T05:31:18;98836.94;;;14.67;68.49
23118;BME280;11728;50.624;6.014;2023-05-29T05:36:39;98848.16;;;14.76;67.91
23118;BME280;11728;50.624;6.014;2023-05-29T05:41:59;98841.88;;;14.79;67.80
23118;BME280;11728;50.624;6.014;2023-05-29T05:47:20;98851.13;;;14.96;67.36
23118;BME280;11728;50.624;6.014;2023-05-29T05:52:41;98840.78;;;15.13;66.76
23118;BME280;11728;50.624;6.014;2023-05-29T05:58:02;98844.50;;;15.37;65.62
23118;BME280;11728;50.624;6.014;2023-05-29T06:03:22;98848.59;;;15.72;64.74
23118;BME280;11728;50.624;6.014;2023-05-29T06:08:44;98852.34;;;15.91;63.93
23118;BME280;11728;50.624;6.014;2023-05-29T06:14:06;98865.84;;;16.11;63.18
23118;BME280;11728;50.624;6.014;2023-05-29T06:19:26;98865.34;;;16.24;62.49
23118;BME280;11728;50.624;6.014;2023-05-29T06:24:47;98873.09;;;16.56;61.51
23118;BME280;11728;50.624;6.014;2023-05-29T06:30:08;98875.69;;;16.81;60.54
23118;BME280;11728;50.624;6.014;2023-05-29T06:35:29;98877.59;;;17.00;60.24
23118;BME280;11728;50.624;6.014;2023-05-29T06:40:50;98875.53;;;17.29;59.38
23118;BME280;11728;50.624;6.014;2023-05-29T06:46:11;98881.75;;;17.51;58.73
23118;BME280;11728;50.624;6.014;2023-05-29T06:51:33;98879.38;;;17.86;57.78
23118;BME280;11728;50.624;6.014;2023-05-29T06:56:53;98875.22;;;18.21;57.35
23118;BME280;11728;50.624;6.014;2023-05-29T07:02:14;98876.28;;;18.56;56.02
23118;BME280;11728;50.624;6.014;2023-05-29T07:07:35;98864.97;;;18.88;55.87
23118;BME280;11728;50.624;6.014;2023-05-29T07:12:56;98877.03;;;19.35;54.20
23118;BME280;11728;50.624;6.014;2023-05-29T07:18:16;98865.13;;;19.76;53.29
23118;BME280;11728;50.624;6.014;2023-05-29T07:23:37;98870.25;;;20.15;52.00
23118;BME280;11728;50.624;6.014;2023-05-29T07:28:58;98867.97;;;20.74;50.95
23118;BME280;11728;50.624;6.014;2023-05-29T07:34:19;98858.97;;;21.38;49.07
23118;BME280;11728;50.624;6.014;2023-05-29T07:39:39;98865.41;;;22.11;47.73
23118;BME280;11728;50.624;6.014;2023-05-29T07:45:00;98867.38;;;22.52;46.45
23118;BME280;11728;50.624;6.014;2023-05-29T07:50:21;98867.09;;;22.99;45.93
23118;BME280;11728;50.624;6.014;2023-05-29T07:55:42;98874.41;;;23.52;44.65
23118;BME280;11728;50.624;6.014;2023-05-29T08:01:03;98870.78;;;23.80;43.87
23118;BME280;11728;50.624;6.014;2023-05-29T08:06:25;98863.91;;;24.14;43.29
23118;BME280;11728;50.624;6.014;2023-05-29T08:11:46;98867.25;;;24.57;41.90
23118;BME280;11728;50.624;6.014;2023-05-29T08:17:07;98875.38;;;25.06;41.26
23118;BME280;11728;50.624;6.014;2023-05-29T08:22:29;98877.38;;;25.40;40.79
23118;BME280;11728;50.624;6.014;2023-05-29T08:27:54;98872.59;;;25.92;39.97
23118;BME280;11728;50.624;6.014;2023-05-29T08:33:15;98873.28;;;26.53;39.02
23118;BME280;11728;50.624;6.014;2023-05-29T08:38:36;98881.53;;;26.97;38.08
23118;BME280;11728;50.624;6.014;2023-05-29T08:43:59;98877.50;;;27.24;37.53
23118;BME280;11728;50.624;6.014;2023-05-29T08:49:23;98882.78;;;27.36;36.88
23118;BME280;11728;50.624;6.014;2023-05-29T08:54:44;98883.78;;;27.57;36.48
23118;BME280;11728;50.624;6.014;2023-05-29T09:00:06;98877.00;;;27.74;36.54
23118;BME280;11728;50.624;6.014;2023-05-29T09:05:33;98889.66;;;27.95;35.51
23118;BME280;11728;50.624;6.014;2023-05-29T09:10:54;98892.09;;;28.51;34.97
23118;BME280;11728;50.624;6.014;2023-05-29T09:16:16;98894.75;;;28.62;34.57
23118;BME280;11728;50.624;6.014;2023-05-29T09:21:38;98900.09;;;28.84;34.13
23118;BME280;11728;50.624;6.014;2023-05-29T09:26:59;98898.38;;;29.03;33.74
23118;BME280;11728;50.624;6.014;2023-05-29T09:32:20;98906.59;;;29.13;34.20
23118;BME280;11728;50.624;6.014;2023-05-29T09:37:42;98908.78;;;29.39;32.98
23118;BME280;11728;50.624;6.014;2023-05-29T09:43:04;98908.28;;;29.55;32.30
23118;BME280;11728;50.624;6.014;2023-05-29T09:48:25;98907.19;;;29.66;32.67
23118;BME280;11728;50.624;6.014;2023-05-29T09:53:46;98910.88;;;29.56;32.11
23118;BME280;11728;50.624;6.014;2023-05-29T09:59:13;98917.34;;;29.94;31.63
23118;BME280;11728;50.624;6.014;2023-05-29T10:04:34;98921.84;;;30.14;31.56
23118;BME280;11728;50.624;6.014;2023-05-29T10:10:00;98913.38;;;30.17;31.37
23118;BME280;11728;50.624;6.014;2023-05-29T10:15:23;98908.41;;;30.41;31.33
23118;BME280;11728;50.624;6.014;2023-05-29T10:20:51;98913.75;;;30.71;30.94
23118;BME280;11728;50.624;6.014;2023-05-29T10:26:24;98920.84;;;30.25;30.47
23118;BME280;11728;50.624;6.014;2023-05-29T10:37:32;98909.56;;;30.95;30.31
23118;BME280;11728;50.624;6.014;2023-05-29T10:42:54;98912.13;;;31.25;30.27
23118;BME280;11728;50.624;6.014;2023-05-29T10:53:40;98922.03;;;31.17;30.19
23118;BME280;11728;50.624;6.014;2023-05-29T10:59:01;98929.31;;;31.54;29.41
23118;BME280;11728;50.624;6.014;2023-05-29T11:09:46;98919.13;;;32.09;28.81
23118;BME280;11728;50.624;6.014;2023-05-29T11:15:11;98916.13;;;31.76;28.70
23118;BME280;11728;50.624;6.014;2023-05-29T11:20:42;98911.38;;;31.78;29.20
23118;BME280;11728;50.624;6.014;2023-05-29T11:26:04;98903.59;;;32.01;28.35
23118;BME280;11728;50.624;6.014;2023-05-29T11:31:26;98908.31;;;32.35;28.48
23118;BME280;11728;50.624;6.014;2023-05-29T11:36:48;98908.06;;;32.11;28.28
23118;BME280;11728;50.624;6.014;2023-05-29T11:42:11;98905.34;;;32.02;28.57
23118;BME280;11728;50.624;6.014;2023-05-29T11:47:32;98898.69;;;32.04;28.34
23118;BME280;11728;50.624;6.014;2023-05-29T11:53:11;98901.28;;;32.50;28.22
23118;BME280;11728;50.624;6.014;2023-05-29T11:58:32;98895.00;;;32.67;28.13
23118;BME280;11728;50.624;6.014;2023-05-29T12:03:53;98889.63;;;33.17;27.51
23118;BME280;11728;50.624;6.014;2023-05-29T12:09:27;98896.47;;;33.13;27.29
23118;BME280;11728;50.624;6.014;2023-05-29T12:14:51;98883.63;;;32.96;27.44
23118;BME280;11728;50.624;6.014;2023-05-29T12:20:13;98881.19;;;33.11;27.47
23118;BME280;11728;50.624;6.014;2023-05-29T12:25:34;98893.66;;;32.71;27.24
23118;BME280;11728;50.624;6.014;2023-05-29T12:30:58;98888.50;;;32.68;27.51
23118;BME280;11728;50.624;6.014;2023-05-29T12:36:25;98886.72;;;32.59;27.13
23118;BME280;11728;50.624;6.014;2023-05-29T12:41:46;98885.59;;;32.52;27.59
23118;BME280;11728;50.624;6.014;2023-05-29T12:47:07;98876.28;;;32.45;28.41
23118;BME280;11728;50.624;6.014;2023-05-29T12:52:28;98883.50;;;32.19;28.04
23118;BME280;11728;50.624;6.014;2023-05-29T12:57:48;98888.19;;;31.82;28.69
23118;BME280;11728;50.624;6.014;2023-05-29T13:03:09;98888.19;;;31.46;28.67
23118;BME280;11728;50.624;6.014;2023-05-29T13:08:31;98885.00;;;31.05;29.26
23118;BME280;11728;50.624;6.014;2023-05-29T13:13:52;98887.31;;;31.00;29.70
23118;BME280;11728;50.624;6.014;2023-05-29T13:19:12;98887.19;;;30.54;30.34
23118;BME280;11728;50.624;6.014;2023-05-29T13:24:33;98894.28;;;30.08;30.23
23118;BME280;11728;50.624;6.014;2023-05-29T13:29:54;98882.69;;;29.37;31.41
23118;BME280;11728;50.624;6.014;2023-05-29T13:35:15;98886.16;;;28.98;31.91
23118;BME280;11728;50.624;6.014;2023-05-29T13:40:35;98875.97;;;28.59;32.50
23118;BME280;11728;50.624;6.014;2023-05-29T13:45:56;98877.94;;;28.37;32.90
23118;BME280;11728;50.624;6.014;2023-05-29T13:51:17;98876.22;;;28.36;32.55
23118;BME280;11728;50.624;6.014;2023-05-29T13:56:37;98880.13;;;28.11;33.09
23118;BME280;11728;50.624;6.014;2023-05-29T14:01:58;98879.31;;;28.31;33.76
23118;BME280;11728;50.624;6.014;2023-05-29T14:07:19;98886.03;;;28.16;33.17
23118;BME280;11728;50.624;6.014;2023-05-29T14:12:40;98889.03;;;27.92;33.68
23118;BME280;11728;50.624;6.014;2023-05-29T14:18:00;98875.66;;;27.79;33.83
23118;BME280;11728;50.624;6.014;2023-05-29T14:23:22;98880.34;;;27.66;34.40
23118;BME280;11728;50.624;6.014;2023-05-29T14:28:44;98875.78;;;27.45;34.76
23118;BME280;11728;50.624;6.014;2023-05-29T14:34:04;98866.28;;;27.18;34.70
23118;BME280;11728;50.624;6.014;2023-05-29T14:39:25;98870.22;;;27.24;34.80
23118;BME280;11728;50.624;6.014;2023-05-29T14:44:46;98871.19;;;27.02;34.88
23118;BME280;11728;50.624;6.014;2023-05-29T14:50:07;98872.75;;;26.93;35.43
23118;BME280;11728;50.624;6.014;2023-05-29T14:55:28;98869.56;;;26.99;35.41
23118;BME280;11728;50.624;6.014;2023-05-29T15:00:49;98873.25;;;26.87;35.26
23118;BME280;11728;50.624;6.014;2023-05-29T15:06:10;98863.63;;;26.72;35.19
23118;BME280;11728;50.624;6.014;2023-05-29T15:11:32;98877.69;;;26.43;35.69
23118;BME280;11728;50.624;6.014;2023-05-29T15:16:53;98869.94;;;26.26;35.89
23118;BME280;11728;50.624;6.014;2023-05-29T15:22:15;98863.16;;;26.21;36.05
23118;BME280;11728;50.624;6.014;2023-05-29T15:27:36;98867.88;;;26.06;36.72
23118;BME280;11728;50.624;6.014;2023-05-29T15:32:56;98865.06;;;26.08;36.32
23118;BME280;11728;50.624;6.014;2023-05-29T15:38:17;98871.72;;;25.80;36.05
23118;BME280;11728;50.624;6.014;2023-05-29T15:43:38;98873.88;;;25.63;36.74
23118;BME280;11728;50.624;6.014;2023-05-29T15:48:59;98877.78;;;25.59;36.51
23118;BME280;11728;50.624;6.014;2023-05-29T15:54:19;98870.16;;;25.41;37.01
23118;BME280;11728;50.624;6.014;2023-05-29T15:59:40;98884.03;;;25.24;37.12
23118;BME280;11728;50.624;6.014;2023-05-29T16:05:01;98879.81;;;24.95;37.04
23118;BME280;11728;50.624;6.014;2023-05-29T16:10:22;98884.13;;;24.73;37.80
23118;BME280;11728;50.624;6.014;2023-05-29T16:15:43;98882.59;;;24.44;37.75
23118;BME280;11728;50.624;6.014;2023-05-29T16:21:07;98889.84;;;24.29;37.79
23118;BME280;11728;50.624;6.014;2023-05-29T16:26:29;98890.22;;;24.11;38.43
23118;BME280;11728;50.624;6.014;2023-05-29T16:31:53;98881.91;;;24.02;38.61
23118;BME280;11728;50.624;6.014;2023-05-29T16:37:13;98890.44;;;23.82;38.98
23118;BME280;11728;50.624;6.014;2023-05-29T16:42:34;98881.91;;;23.75;39.45
23118;BME280;11728;50.624;6.014;2023-05-29T16:47:55;98888.69;;;23.67;39.07
23118;BME280;11728;50.624;6.014;2023-05-29T16:53:15;98894.25;;;23.51;39.16
23118;BME280;11728;50.624;6.014;2023-05-29T16:58:36;98894.56;;;23.33;38.97
23118;BME280;11728;50.624;6.014;2023-05-29T17:03:57;98895.03;;;23.12;39.26
23118;BME280;11728;50.624;6.014;2023-05-29T17:09:18;98893.66;;;22.77;39.49
23118;BME280;11728;50.624;6.014;2023-05-29T17:14:39;98903.44;;;22.50;40.09
23118;BME280;11728;50.624;6.014;2023-05-29T17:20:00;98898.88;;;22.37;40.50
23118;BME280;11728;50.624;6.014;2023-05-29T17:25:21;98910.88;;;22.16;41.00
23118;BME280;11728;50.624;6.014;2023-05-29T17:30:42;98906.41;;;22.01;41.28
23118;BME280;11728;50.624;6.014;2023-05-29T17:36:03;98915.81;;;21.78;42.15
23118;BME280;11728;50.624;6.014;2023-05-29T17:41:24;98904.09;;;21.49;41.98
23118;BME280;11728;50.624;6.014;2023-05-29T17:46:45;98918.69;;;21.28;42.71
23118;BME280;11728;50.624;6.014;2023-05-29T17:52:06;98917.63;;;21.15;42.71
23118;BME280;11728;50.624;6.014;2023-05-29T17:57:29;98916.91;;;20.96;42.93
23118;BME280;11728;50.624;6.014;2023-05-29T18:02:50;98910.72;;;20.79;42.67
23118;BME280;11728;50.624;6.014;2023-05-29T18:08:11;98916.88;;;20.64;42.88
23118;BME280;11728;50.624;6.014;2023-05-29T18:13:31;98921.91;;;20.53;42.77
23118;BME280;11728;50.624;6.014;2023-05-29T18:18:52;98918.75;;;20.45;42.93
23118;BME280;11728;50.624;6.014;2023-05-29T18:24:13;98908.34;;;20.39;42.46
23118;BME280;11728;50.624;6.014;2023-05-29T18:29:34;98915.06;;;20.30;42.75
23118;BME280;11728;50.624;6.014;2023-05-29T18:34:55;98911.91;;;20.22;42.47
23118;BME280;11728;50.624;6.014;2023-05-29T18:40:15;98912.38;;;20.13;42.89
23118;BME280;11728;50.624;6.014;2023-05-29T18:45:36;98912.84;;;20.05;42.71
23118;BME280;11728;50.624;6.014;2023-05-29T18:50:57;98903.66;;;19.92;42.33
23118;BME280;11728;50.624;6.014;2023-05-29T18:56:20;98904.50;;;19.75;41.74
23118;BME280;11728;50.624;6.014;2023-05-29T19:01:41;98912.38;;;19.60;41.95
23118;BME280;11728;50.624;6.014;2023-05-29T19:07:01;98905.91;;;19.47;41.68
23118;BME280;11728;50.624;6.014;2023-05-29T19:12:22;98921.59;;;19.36;41.82
23118;BME280;11728;50.624;6.014;2023-05-29T19:17:43;98917.94;;;19.20;42.14
23118;BME280;11728;50.624;6.014;2023-05-29T19:23:04;98920.41;;;19.05;41.66
23118;BME280;11728;50.624;6.014;2023-05-29T19:28:25;98931.97;;;18.87;41.92
23118;BME280;11728;50.624;6.014;2023-05-29T19:33:46;98942.63;;;18.68;42.13
23118;BME280;11728;50.624;6.014;2023-05-29T19:39:08;98945.91;;;18.55;42.16
23118;BME280;11728;50.624;6.014;2023-05-29T19:44:30;98955.63;;;18.38;41.94
23118;BME280;11728;50.624;6.014;2023-05-29T19:49:53;98948.16;;;18.24;42.10
23118;BME280;11728;50.624;6.014;2023-05-29T19:55:13;98958.47;;;18.12;42.33
23118;BME280;11728;50.624;6.014;2023-05-29T20:00:34;98968.88;;;17.98;42.26
23118;BME280;11728;50.624;6.014;2023-05-29T20:05:55;98972.06;;;17.86;42.68
23118;BME280;11728;50.624;6.014;2023-05-29T20:11:16;98975.09;;;17.77;43.13
23118;BME280;11728;50.624;6.014;2023-05-29T20:16:37;98985.41;;;17.65;43.41
23118;BME280;11728;50.624;6.014;2023-05-29T20:21:58;98979.72;;;17.51;43.50
23118;BME280;11728;50.624;6.014;2023-05-29T20:27:19;98976.56;;;17.41;43.56
23118;BME280;11728;50.624;6.014;2023-05-29T20:32:40;98991.31;;;17.28;43.83
23118;BME280;11728;50.624;6.014;2023-05-29T20:38:00;98993.53;;;17.16;44.31
23118;BME280;11728;50.624;6.014;2023-05-29T20:43:21;98993.13;;;17.03;44.48
23118;BME280;11728;50.624;6.014;2023-05-29T20:48:42;98985.56;;;16.92;44.66
23118;BME280;11728;50.624;6.014;2023-05-29T20:54:03;98983.41;;;16.78;45.10
23118;BME280;11728;50.624;6.014;2023-05-29T20:59:24;98982.88;;;16.69;45.56
23118;BME280;11728;50.624;6.014;2023-05-29T21:04:45;98987.69;;;16.58;45.84
23118;BME280;11728;50.624;6.014;2023-05-29T21:10:06;98987.31;;;16.44;46.12
23118;BME280;11728;50.624;6.014;2023-05-29T21:15:28;98987.63;;;16.35;46.13
23118;BME280;11728;50.624;6.014;2023-05-29T21:20:49;98996.72;;;16.28;46.68
23118;BME280;11728;50.624;6.014;2023-05-29T21:26:10;98996.09;;;16.20;46.64
23118;BME280;11728;50.624;6.014;2023-05-29T21:31:34;98983.97;;;16.12;47.13
23118;BME280;11728;50.624;6.014;2023-05-29T21:36:59;98986.78;;;16.07;47.15
23118;BME280;11728;50.624;6.014;2023-05-29T21:42:20;98982.59;;;16.00;47.35
23118;BME280;11728;50.624;6.014;2023-05-29T21:47:41;98994.38;;;15.93;47.56
23118;BME280;11728;50.624;6.014;2023-05-29T21:53:02;98986.59;;;15.86;47.72
23118;BME280;11728;50.624;6.014;2023-05-29T21:58:23;98995.72;;;15.79;48.08
23118;BME280;11728;50.624;6.014;2023-05-29T22:03:44;99001.44;;;15.67;48.61
23118;BME280;11728;50.624;6.014;2023-05-29T22:09:04;98999.97;;;15.58;48.76
23118;BME280;11728;50.624;6.014;2023-05-29T22:14:25;99010.00;;;15.49;48.97
23118;BME280;11728;50.624;6.014;2023-05-29T22:19:46;99008.50;;;15.40;49.22
23118;BME280;11728;50.624;6.014;2023-05-29T22:25:07;99002.53;;;15.33;49.52
23118;BME280;11728;50.624;6.014;2023-05-29T22:30:28;99002.81;;;15.24;50.06
23118;BME280;11728;50.624;6.014;2023-05-29T22:35:49;99010.28;;;15.10;50.32
23118;BME280;11728;50.624;6.014;2023-05-29T22:41:11;99005.34;;;14.98;50.42
23118;BME280;11728;50.624;6.014;2023-05-29T22:46:31;99004.69;;;14.90;50.67
23118;BME280;11728;50.624;6.014;2023-05-29T22:51:53;99017.38;;;14.79;50.97
23118;BME280;11728;50.624;6.014;2023-05-29T22:57:14;99019.47;;;14.68;51.38
23118;BME280;11728;50.624;6.014;2023-05-29T23:02:35;99021.47;;;14.60;51.67
23118;BME280;11728;50.624;6.014;2023-05-29T23:07:57;99022.56;;;14.53;51.88
23118;BME280;11728;50.624;6.014;2023-05-29T23:13:17;99035.00;;;14.51;52.12
23118;BME280;11728;50.624;6.014;2023-05-29T23:18:38;99031.59;;;14.46;52.07
23118;BME280;11728;50.624;6.014;2023-05-29T23:23:59;99033.63;;;14.37;52.48
23118;BME280;11728;50.624;6.014;2023-05-29T23:29:21;99045.34;;;14.28;52.64
23118;BME280;11728;50.624;6.014;2023-05-29T23:34:41;99048.41;;;14.13;52.83
23118;BME280;11728;50.624;6.014;2023-05-29T23:40:02;99050.31;;;14.05;53.28
23118;BME280;11728;50.624;6.014;2023-05-29T23:45:25;99049.72;;;13.94;53.64
23118;BME280;11728;50.624;6.014;2023-05-29T23:50:46;99056.19;;;13.83;53.92
23118;BME280;11728;50.624;6.014;2023-05-29T23:56:07;99055.56;;;13.72;54.51
